createdAt,value
2019-01-12T00:01:28.891Z,72.10
2019-01-12T00:03:58.757Z,72.20
2019-01-12T00:06:27.158Z,72.20
2019-01-12T00:08:55.645Z,72.20
2019-01-12T00:11:24.056Z,72.00
2019-01-12T00:13:54.228Z,72.00
2019-01-12T00:16:23.809Z,72.00
2019-01-12T00:18:56.246Z,72.00
2019-01-12T00:21:28.284Z,72.00
2019-01-12T00:23:57.108Z,72.00
2019-01-12T00:26:25.749Z,72.10
2019-01-12T00:28:54.158Z,72.20
2019-01-12T00:31:22.667Z,72.20
2019-01-12T00:33:50.989Z,72.00
2019-01-12T00:36:19.482Z,72.00
2019-01-12T00:38:48.117Z,72.10
2019-01-12T00:41:16.594Z,72.10
2019-01-12T00:43:44.929Z,72.10
2019-01-12T00:46:13.452Z,72.10
2019-01-12T00:48:41.770Z,72.10
2019-01-12T00:51:10.375Z,72.80
2019-01-12T00:53:38.705Z,72.00
2019-01-12T00:56:07.317Z,71.90
2019-01-12T00:58:35.751Z,71.90
2019-01-12T01:01:04.446Z,72.00
2019-01-12T01:03:32.820Z,72.00
2019-01-12T01:06:01.389Z,72.00
2019-01-12T01:08:33.403Z,72.00
2019-01-12T01:11:01.974Z,72.00
2019-01-12T01:13:31.306Z,72.80
2019-01-12T01:15:59.794Z,72.00
2019-01-12T01:18:28.220Z,72.00
2019-01-12T01:20:56.693Z,72.00
2019-01-12T01:23:26.293Z,72.00
2019-01-12T01:25:54.777Z,72.10
2019-01-12T01:28:23.089Z,72.10
2019-01-12T01:30:51.731Z,72.00
2019-01-12T01:33:27.663Z,72.00
2019-01-12T01:35:50.822Z,72.00
2019-01-12T01:38:19.301Z,72.00
2019-01-12T01:40:47.793Z,72.00
2019-01-12T01:43:16.164Z,72.00
2019-01-12T01:45:44.787Z,72.00
2019-01-12T01:48:13.188Z,72.00
2019-01-12T01:50:41.849Z,72.00
2019-01-12T01:53:10.473Z,71.90
2019-01-12T01:55:39.004Z,72.00
2019-01-12T01:58:07.963Z,71.90
2019-01-12T02:00:36.548Z,72.00
2019-01-12T02:03:04.989Z,71.90
2019-01-12T02:05:33.378Z,71.90
2019-01-12T02:08:01.880Z,71.80
2019-01-12T02:10:34.045Z,71.80
2019-01-12T02:13:02.601Z,71.70
2019-01-12T02:15:31.010Z,71.70
2019-01-12T02:17:59.901Z,71.70
2019-01-12T02:20:28.304Z,71.70
2019-01-12T02:22:56.813Z,71.80
2019-01-12T02:25:25.369Z,71.70
2019-01-12T02:27:53.916Z,71.70
2019-01-12T02:30:23.940Z,71.80
2019-01-12T02:32:53.056Z,71.80
2019-01-12T02:35:21.647Z,71.80
2019-01-12T02:37:50.107Z,71.80
2019-01-12T02:40:18.655Z,71.80
2019-01-12T02:42:47.180Z,71.80
2019-01-12T02:45:15.886Z,72.30
2019-01-12T02:47:44.265Z,72.40
2019-01-12T02:50:13.173Z,72.30
2019-01-12T02:52:41.689Z,72.20
2019-01-12T02:55:11.033Z,72.20
2019-01-12T02:57:39.454Z,72.00
2019-01-12T03:00:18.597Z,71.90
2019-01-12T03:02:48.804Z,72.00
2019-01-12T03:05:17.629Z,72.00
2019-01-12T03:07:46.264Z,71.90
2019-01-12T03:10:16.862Z,71.80
2019-01-12T03:12:45.697Z,71.80
2019-01-12T03:15:17.699Z,71.80
2019-01-12T03:17:46.120Z,71.80
2019-01-12T03:20:16.229Z,71.80
2019-01-12T03:22:44.758Z,71.70
2019-01-12T03:25:18.710Z,71.70
2019-01-12T03:27:43.440Z,71.60
2019-01-12T03:30:17.238Z,71.60
2019-01-12T03:32:45.769Z,71.60
2019-01-12T03:35:15.844Z,71.60
2019-01-12T03:37:44.712Z,71.60
2019-01-12T03:40:18.572Z,71.40
2019-01-12T03:42:47.236Z,71.30
2019-01-12T03:45:16.769Z,71.30
2019-01-12T03:47:45.511Z,71.10
2019-01-12T03:50:14.774Z,71.10
2019-01-12T03:52:43.178Z,71.10
2019-01-12T03:55:11.736Z,71.00
2019-01-12T03:57:40.057Z,71.00
2019-01-12T04:00:15.528Z,71.00
2019-01-12T04:02:44.343Z,71.00
2019-01-12T04:05:12.852Z,70.80
2019-01-12T04:07:41.409Z,70.80
2019-01-12T04:10:10.469Z,70.70
2019-01-12T04:12:38.898Z,70.80
2019-01-12T04:15:08.334Z,70.70
2019-01-12T04:17:36.721Z,71.50
2019-01-12T04:20:06.725Z,70.90
2019-01-12T04:22:35.105Z,71.00
2019-01-12T04:25:04.486Z,71.00
2019-01-12T04:27:32.988Z,71.00
2019-01-12T04:30:01.311Z,71.00
2019-01-12T04:32:29.846Z,71.00
2019-01-12T04:34:58.246Z,71.00
2019-01-12T04:37:26.613Z,71.00
2019-01-12T04:39:55.034Z,71.00
2019-01-12T04:42:23.423Z,70.90
2019-01-12T04:44:51.835Z,70.80
2019-01-12T04:47:20.218Z,70.70
2019-01-12T04:49:48.653Z,70.70
2019-01-12T04:52:17.025Z,70.80
2019-01-12T04:54:45.429Z,70.60
2019-01-12T04:57:15.049Z,70.70
2019-01-12T04:59:43.525Z,70.70
2019-01-12T05:02:11.894Z,70.70
2019-01-12T05:04:40.408Z,70.70
2019-01-12T05:07:09.022Z,70.60
2019-01-12T05:09:37.334Z,70.50
2019-01-12T05:12:05.906Z,70.50
2019-01-12T05:14:34.221Z,70.50
2019-01-12T05:17:02.784Z,70.50
2019-01-12T05:19:31.099Z,70.50
2019-01-12T05:21:59.577Z,70.50
2019-01-12T05:24:27.881Z,70.50
2019-01-12T05:26:57.483Z,70.50
2019-01-12T05:29:25.813Z,70.50
2019-01-12T05:31:54.370Z,70.50
2019-01-12T05:34:22.845Z,70.50
2019-01-12T05:36:51.457Z,70.50
2019-01-12T05:39:19.959Z,71.30
2019-01-12T05:41:48.409Z,70.50
2019-01-12T05:44:17.049Z,70.70
2019-01-12T05:46:47.477Z,70.70
2019-01-12T05:49:15.889Z,70.70
2019-01-12T05:51:44.394Z,70.70
2019-01-12T05:54:12.881Z,70.50
2019-01-12T05:56:41.216Z,70.50
2019-01-12T05:59:09.641Z,69.70
2019-01-12T06:01:38.045Z,70.50
2019-01-12T06:04:06.825Z,70.60
2019-01-12T06:06:35.420Z,71.30
2019-01-12T06:09:06.589Z,70.50
2019-01-12T06:11:35.024Z,70.50
2019-01-12T06:14:04.071Z,70.50
2019-01-12T06:16:32.764Z,70.50
2019-01-12T12:50:13.440Z,50.30
2019-01-12T12:52:42.314Z,51.20
2019-01-12T12:55:11.850Z,51.30
2019-01-12T12:57:40.227Z,51.00
2019-01-12T13:00:12.737Z,50.50
2019-01-12T13:02:41.367Z,49.60
2019-01-12T13:05:11.765Z,48.70
2019-01-12T13:07:40.305Z,48.00
2019-01-12T13:10:15.025Z,48.00
2019-01-12T13:12:46.826Z,48.40
2019-01-12T13:15:15.889Z,48.90
2019-01-12T13:17:44.502Z,49.00
2019-01-12T13:20:14.974Z,49.50
2019-01-12T13:22:43.679Z,50.00
2019-01-12T13:25:12.401Z,50.20
2019-01-12T13:27:41.045Z,50.30
2019-01-12T13:30:13.571Z,50.70
2019-01-12T13:32:42.274Z,51.00
2019-01-12T13:35:13.008Z,50.90
2019-01-12T13:37:44.215Z,50.90
2019-01-12T13:40:15.869Z,50.90
2019-01-12T13:42:46.138Z,51.00
2019-01-12T13:45:17.037Z,51.00
2019-01-12T13:47:47.617Z,51.00
2019-01-12T13:50:18.628Z,51.00
2019-01-12T13:52:47.393Z,51.10
2019-01-12T13:55:16.915Z,51.00
2019-01-12T13:57:47.755Z,51.10
2019-01-12T14:00:35.822Z,51.10
2019-01-12T14:03:05.902Z,51.10
2019-01-12T14:05:35.577Z,51.20
2019-01-12T14:08:06.622Z,51.20
2019-01-12T14:10:35.502Z,51.30
2019-01-12T14:13:05.138Z,51.30
2019-01-12T14:15:33.704Z,51.40
2019-01-12T14:18:02.305Z,51.40
2019-01-12T14:20:34.082Z,51.40
2019-01-12T14:23:02.660Z,51.40
2019-01-12T14:25:31.103Z,51.90
2019-01-12T14:27:59.481Z,51.40
2019-01-12T14:30:28.669Z,51.40
2019-01-12T14:32:57.389Z,50.40
2019-01-12T14:35:25.915Z,50.60
2019-01-12T14:37:54.363Z,50.60
2019-01-12T14:40:22.843Z,50.80
2019-01-12T14:42:51.259Z,50.90
2019-01-12T14:45:25.827Z,50.90
2019-01-12T14:47:54.349Z,50.90
2019-01-12T14:50:22.937Z,51.00
2019-01-12T14:52:51.478Z,51.10
2019-01-12T14:55:20.467Z,51.10
2019-01-12T14:57:49.147Z,51.80
2019-01-12T15:00:19.761Z,51.20
2019-01-12T15:02:48.265Z,51.30
2019-01-12T15:05:18.666Z,51.40
2019-01-12T15:07:47.398Z,51.40
2019-01-12T15:10:17.177Z,51.40
2019-01-12T15:12:46.269Z,51.40
2019-01-12T15:15:15.429Z,51.50
2019-01-12T15:17:44.077Z,51.60
2019-01-12T15:20:15.368Z,51.60
2019-01-12T15:22:43.898Z,51.70
2019-01-12T15:25:12.821Z,51.70
2019-01-12T15:27:41.442Z,51.70
2019-01-12T15:30:16.587Z,51.80
2019-01-12T15:32:45.170Z,51.80
2019-01-12T15:35:15.421Z,51.80
2019-01-12T15:37:43.978Z,51.60
2019-01-12T15:40:13.934Z,51.50
2019-01-12T15:42:42.705Z,51.70
2019-01-12T15:45:14.318Z,51.80
2019-01-12T15:47:43.150Z,51.80
2019-01-12T15:50:14.466Z,51.90
2019-01-12T15:52:42.905Z,52.00
2019-01-12T15:55:11.449Z,52.10
2019-01-12T15:57:40.159Z,52.10
2019-01-12T16:00:12.209Z,52.20
2019-01-12T16:02:41.138Z,52.30
2019-01-12T16:05:10.327Z,52.40
2019-01-12T16:07:38.911Z,52.50
2019-01-12T16:10:08.250Z,52.60
2019-01-12T16:12:36.760Z,53.30
2019-01-12T16:15:08.766Z,52.70
2019-01-12T16:17:38.101Z,52.80
2019-01-12T16:20:11.158Z,52.80
2019-01-12T16:22:39.597Z,52.90
2019-01-12T16:25:08.421Z,53.00
2019-01-12T16:27:37.107Z,52.90
2019-01-12T16:30:07.877Z,53.00
2019-01-12T16:32:36.325Z,53.10
2019-01-12T16:35:05.221Z,53.20
2019-01-12T16:37:35.998Z,53.30
2019-01-12T16:40:05.217Z,53.50
2019-01-12T16:42:35.300Z,53.60
2019-01-12T16:45:04.931Z,53.80
2019-01-12T16:47:33.413Z,54.00
2019-01-12T16:50:02.023Z,54.00
2019-01-12T16:52:30.554Z,54.10
2019-01-12T16:54:59.071Z,54.20
2019-01-12T16:57:28.563Z,54.20
2019-01-12T16:59:59.711Z,54.40
2019-01-12T17:02:28.853Z,54.40
2019-01-12T17:04:57.286Z,54.40
2019-01-12T17:07:25.704Z,54.40
2019-01-12T17:09:54.194Z,54.50
2019-01-12T17:12:22.645Z,54.60
2019-01-12T17:14:51.308Z,54.70
2019-01-12T17:17:19.926Z,54.80
2019-01-12T17:19:48.414Z,54.80
2019-01-12T17:22:16.882Z,55.00
2019-01-12T17:24:45.473Z,55.10
2019-01-12T17:27:13.919Z,55.20
2019-01-12T17:29:42.549Z,55.20
2019-01-12T17:32:11.086Z,55.30
2019-01-12T17:34:39.911Z,55.40
2019-01-12T17:37:08.558Z,55.40
2019-01-12T17:39:37.246Z,55.60
2019-01-12T17:42:05.777Z,55.60
2019-01-12T17:44:34.324Z,55.70
2019-01-12T17:47:02.725Z,55.70
2019-01-12T17:49:31.237Z,55.80
2019-01-12T17:51:59.655Z,55.70
2019-01-12T17:54:28.072Z,55.70
2019-01-12T17:56:56.622Z,55.80
2019-01-12T17:59:25.163Z,55.80
2019-01-12T18:01:53.651Z,55.80
2019-01-12T18:04:21.977Z,55.90
2019-01-12T18:06:50.470Z,56.00
2019-01-12T18:09:19.368Z,56.00
2019-01-12T18:11:47.986Z,56.00
2019-01-12T18:14:16.469Z,56.10
2019-01-12T18:16:44.930Z,56.10
2019-01-12T18:19:13.501Z,56.30
2019-01-12T18:21:42.006Z,56.30
2019-01-12T18:24:10.489Z,56.30
2019-01-12T18:26:38.898Z,56.50
2019-01-12T18:29:08.717Z,56.60
2019-01-12T18:31:37.310Z,56.70
2019-01-12T18:34:06.111Z,56.60
2019-01-12T18:36:34.898Z,56.70
2019-01-12T18:39:05.340Z,56.70
2019-01-12T18:41:35.200Z,56.80
2019-01-12T18:44:05.296Z,56.80
2019-01-12T18:46:33.818Z,56.80
2019-01-12T18:49:02.490Z,56.40
2019-01-12T18:51:31.109Z,57.00
2019-01-12T18:54:02.586Z,57.10
2019-01-12T18:56:31.869Z,57.10
2019-01-12T18:59:02.421Z,57.10
2019-01-12T19:01:32.429Z,57.30
2019-01-12T19:04:02.227Z,57.30
2019-01-12T19:06:43.643Z,57.40
2019-01-12T19:09:12.181Z,57.40
2019-01-12T19:11:40.746Z,57.50
2019-01-12T19:14:09.301Z,57.70
2019-01-12T19:16:37.880Z,57.80
2019-01-12T19:19:06.269Z,57.80
2019-01-12T19:21:35.617Z,57.70
2019-01-12T19:24:04.397Z,57.80
2019-01-12T19:26:32.761Z,57.80
2019-01-12T19:29:06.322Z,58.00
2019-01-12T19:31:31.862Z,58.10
2019-01-12T19:34:00.200Z,58.20
2019-01-12T19:36:28.778Z,58.20
2019-01-12T19:38:57.585Z,58.20
2019-01-12T19:41:26.085Z,58.30
2019-01-12T19:43:54.480Z,58.30
2019-01-12T19:46:23.104Z,58.30
2019-01-12T19:48:51.759Z,58.40
2019-01-12T19:51:20.389Z,58.40
2019-01-12T19:53:48.853Z,58.50
2019-01-12T19:56:17.686Z,58.60
2019-01-12T19:58:46.466Z,58.50
2019-01-12T20:01:15.033Z,58.50
2019-01-12T20:03:43.734Z,58.40
2019-01-12T20:06:17.221Z,58.40
2019-01-12T20:08:43.845Z,58.90
2019-01-12T20:11:13.046Z,58.40
2019-01-12T20:13:42.336Z,58.50
2019-01-12T20:16:11.014Z,58.50
2019-01-12T20:18:39.801Z,58.60
2019-01-12T20:21:08.325Z,58.60
2019-01-12T20:23:37.792Z,58.70
2019-01-12T20:26:06.398Z,58.60
2019-01-12T20:28:34.977Z,58.60
2019-01-12T20:31:51.065Z,58.60
2019-01-12T20:34:30.662Z,58.60
2019-01-12T20:37:38.933Z,58.70
2019-01-12T20:40:16.637Z,58.70
2019-01-12T20:43:09.422Z,58.70
2019-01-12T20:46:13.121Z,58.90
2019-01-12T20:48:52.765Z,58.90
2019-01-12T20:52:03.501Z,59.00
2019-01-12T20:55:23.208Z,59.00
2019-01-12T20:58:24.993Z,59.10
2019-01-12T21:01:12.186Z,59.00
2019-01-12T21:04:10.438Z,59.00
2019-01-12T21:07:22.806Z,59.20
2019-01-12T21:10:17.870Z,59.10
2019-01-12T21:13:36.883Z,59.10
2019-01-12T21:16:14.503Z,59.20
2019-01-12T21:18:44.761Z,59.30
2019-01-12T21:21:17.459Z,59.40
2019-01-12T21:23:46.023Z,59.40
2019-01-12T21:26:28.132Z,59.50
2019-01-12T21:28:56.959Z,60.30
2019-01-12T21:31:25.441Z,59.50
2019-01-12T21:33:53.978Z,59.60
2019-01-12T21:36:22.478Z,59.50
2019-01-12T21:38:50.966Z,59.70
2019-01-12T21:41:19.490Z,59.60
2019-01-12T21:43:47.908Z,59.70
2019-01-12T21:46:16.407Z,59.60
2019-01-12T21:48:44.697Z,59.60
2019-01-12T21:51:13.317Z,59.70
2019-01-12T21:53:41.727Z,59.70
2019-01-12T21:56:10.311Z,59.80
2019-01-12T21:58:38.856Z,59.80
2019-01-12T22:01:07.454Z,59.80
2019-01-12T22:03:37.203Z,59.90
2019-01-12T22:06:07.416Z,59.90
2019-01-12T22:08:37.658Z,59.80
2019-01-12T22:11:07.671Z,59.80
2019-01-12T22:13:37.993Z,59.80
2019-01-12T22:16:08.054Z,59.90
2019-01-12T22:18:39.825Z,60.00
2019-01-12T22:21:09.886Z,60.00
2019-01-12T22:23:40.022Z,60.00
2019-01-12T22:26:14.094Z,59.90
2019-01-12T22:28:44.139Z,59.90
2019-01-12T22:31:14.289Z,59.90
2019-01-12T22:33:44.275Z,59.90
2019-01-12T22:36:16.205Z,59.90
2019-01-12T22:38:46.138Z,59.90
2019-01-12T22:41:16.040Z,59.90
2019-01-12T22:43:45.997Z,59.90
2019-01-12T22:46:16.309Z,59.80
2019-01-12T22:48:46.356Z,59.70
2019-01-12T22:51:17.179Z,59.60
2019-01-12T22:53:48.821Z,59.50
2019-01-12T22:56:18.903Z,59.50
2019-01-12T22:58:48.946Z,59.50
2019-01-12T23:01:52.531Z,59.40
2019-01-12T23:04:25.098Z,59.40
2019-01-12T23:06:55.124Z,59.50
2019-01-12T23:09:25.174Z,59.50
2019-01-12T23:11:55.196Z,59.50
2019-01-12T23:14:25.344Z,60.10
2019-01-12T23:16:55.439Z,59.60
2019-01-12T23:19:24.367Z,59.70
2019-01-12T23:21:53.368Z,59.60
2019-01-12T23:24:21.973Z,59.60
2019-01-12T23:26:51.026Z,59.60
2019-01-12T23:29:20.858Z,59.60
2019-01-12T23:31:49.468Z,59.50
2019-01-12T23:34:17.840Z,59.50
2019-01-12T23:36:46.532Z,59.50
2019-01-12T23:39:15.373Z,59.50
2019-01-12T23:41:43.852Z,59.50
2019-01-12T23:44:15.068Z,59.50
2019-01-12T23:46:42.674Z,59.50
2019-01-12T23:49:10.989Z,59.60
2019-01-12T23:51:39.565Z,59.50
2019-01-12T23:54:07.872Z,59.50
2019-01-12T23:56:36.324Z,59.60
2019-01-12T23:59:05.865Z,59.60
